sensor_id;sensor_type;location;lat;lon;timestamp;P1;durP1;ratioP1;P2;durP2;ratioP2
18102;SDS011;9178;51.120;6.192;2023-06-22T00:02:21;5.60;;;4.28;;
18102;SDS011;9178;51.120;6.192;2023-06-22T00:04:48;4.68;;;4.25;;
18102;SDS011;9178;51.120;6.192;2023-06-22T00:07:15;5.20;;;4.70;;
18102;SDS011;9178;51.120;6.192;2023-06-22T00:09:43;5.15;;;4.45;;
18102;SDS011;9178;51.120;6.192;2023-06-22T00:12:10;4.18;;;3.88;;
18102;SDS011;9178;51.120;6.192;2023-06-22T00:14:40;5.05;;;4.55;;
18102;SDS011;9178;51.120;6.192;2023-06-22T00:17:07;5.32;;;4.68;;
18102;SDS011;9178;51.120;6.192;2023-06-22T00:19:39;4.82;;;4.43;;
18102;SDS011;9178;51.120;6.192;2023-06-22T00:22:08;4.72;;;4.35;;
18102;SDS011;9178;51.120;6.192;2023-06-22T00:24:35;5.13;;;4.63;;
18102;SDS011;9178;51.120;6.192;2023-06-22T00:27:03;5.57;;;4.90;;
18102;SDS011;9178;51.120;6.192;2023-06-22T00:29:31;5.50;;;4.85;;
18102;SDS011;9178;51.120;6.192;2023-06-22T00:31:59;5.20;;;4.80;;
18102;SDS011;9178;51.120;6.192;2023-06-22T00:34:26;5.53;;;5.03;;
18102;SDS011;9178;51.120;6.192;2023-06-22T00:36:53;5.50;;;5.00;;
18102;SDS011;9178;51.120;6.192;2023-06-22T00:39:20;5.90;;;5.40;;
18102;SDS011;9178;51.120;6.192;2023-06-22T00:41:47;6.90;;;6.05;;
18102;SDS011;9178;51.120;6.192;2023-06-22T00:44:14;6.15;;;5.57;;
18102;SDS011;9178;51.120;6.192;2023-06-22T00:46:41;7.80;;;6.13;;
18102;SDS011;9178;51.120;6.192;2023-06-22T00:49:10;8.02;;;6.20;;
18102;SDS011;9178;51.120;6.192;2023-06-22T00:51:39;7.07;;;6.38;;
18102;SDS011;9178;51.120;6.192;2023-06-22T00:54:12;9.15;;;6.22;;
18102;SDS011;9178;51.120;6.192;2023-06-22T00:56:40;9.05;;;6.60;;
18102;SDS011;9178;51.120;6.192;2023-06-22T00:59:08;7.03;;;6.32;;
18102;SDS011;9178;51.120;6.192;2023-06-22T01:01:37;8.93;;;6.32;;
18102;SDS011;9178;51.120;6.192;2023-06-22T01:04:10;7.10;;;6.50;;
18102;SDS011;9178;51.120;6.192;2023-06-22T01:06:38;8.07;;;7.13;;
18102;SDS011;9178;51.120;6.192;2023-06-22T01:09:12;9.90;;;7.32;;
18102;SDS011;9178;51.120;6.192;2023-06-22T01:11:45;9.48;;;7.45;;
18102;SDS011;9178;51.120;6.192;2023-06-22T01:14:18;8.55;;;7.53;;
18102;SDS011;9178;51.120;6.192;2023-06-22T01:16:50;8.10;;;7.30;;
18102;SDS011;9178;51.120;6.192;2023-06-22T01:19:35;8.30;;;7.35;;
18102;SDS011;9178;51.120;6.192;2023-06-22T01:22:08;8.70;;;7.80;;
18102;SDS011;9178;51.120;6.192;2023-06-22T01:24:41;9.20;;;8.07;;
18102;SDS011;9178;51.120;6.192;2023-06-22T01:27:19;10.90;;;8.35;;
18102;SDS011;9178;51.120;6.192;2023-06-22T01:29:59;9.55;;;8.55;;
18102;SDS011;9178;51.120;6.192;2023-06-22T01:32:30;9.75;;;8.75;;
18102;SDS011;9178;51.120;6.192;2023-06-22T01:35:03;9.55;;;8.27;;
18102;SDS011;9178;51.120;6.192;2023-06-22T01:37:33;11.23;;;9.20;;
18102;SDS011;9178;51.120;6.192;2023-06-22T01:40:01;10.88;;;9.88;;
18102;SDS011;9178;51.120;6.192;2023-06-22T01:42:30;10.73;;;9.63;;
18102;SDS011;9178;51.120;6.192;2023-06-22T01:44:59;10.85;;;9.70;;
18102;SDS011;9178;51.120;6.192;2023-06-22T01:47:27;13.35;;;9.80;;
18102;SDS011;9178;51.120;6.192;2023-06-22T01:49:54;13.82;;;9.80;;
18102;SDS011;9178;51.120;6.192;2023-06-22T01:52:21;10.40;;;9.18;;
18102;SDS011;9178;51.120;6.192;2023-06-22T01:54:48;11.68;;;9.82;;
18102;SDS011;9178;51.120;6.192;2023-06-22T01:57:16;10.68;;;9.55;;
18102;SDS011;9178;51.120;6.192;2023-06-22T01:59:46;11.35;;;10.27;;
18102;SDS011;9178;51.120;6.192;2023-06-22T02:02:19;10.32;;;9.40;;
18102;SDS011;9178;51.120;6.192;2023-06-22T02:04:52;10.25;;;9.25;;
18102;SDS011;9178;51.120;6.192;2023-06-22T02:07:24;10.75;;;9.63;;
18102;SDS011;9178;51.120;6.192;2023-06-22T02:09:58;12.82;;;9.98;;
18102;SDS011;9178;51.120;6.192;2023-06-22T02:12:28;11.23;;;9.57;;
18102;SDS011;9178;51.120;6.192;2023-06-22T02:14:56;11.50;;;9.90;;
18102;SDS011;9178;51.120;6.192;2023-06-22T02:17:28;10.98;;;9.77;;
18102;SDS011;9178;51.120;6.192;2023-06-22T02:19:58;11.15;;;9.98;;
18102;SDS011;9178;51.120;6.192;2023-06-22T02:22:25;13.45;;;10.63;;
18102;SDS011;9178;51.120;6.192;2023-06-22T02:24:52;12.40;;;10.13;;
18102;SDS011;9178;51.120;6.192;2023-06-22T02:27:19;13.00;;;9.63;;
18102;SDS011;9178;51.120;6.192;2023-06-22T02:29:46;12.18;;;10.88;;
18102;SDS011;9178;51.120;6.192;2023-06-22T02:32:13;14.57;;;11.38;;
18102;SDS011;9178;51.120;6.192;2023-06-22T02:34:44;14.15;;;12.07;;
18102;SDS011;9178;51.120;6.192;2023-06-22T02:37:12;12.20;;;11.00;;
18102;SDS011;9178;51.120;6.192;2023-06-22T02:39:40;13.93;;;11.27;;
18102;SDS011;9178;51.120;6.192;2023-06-22T02:42:07;12.30;;;11.10;;
18102;SDS011;9178;51.120;6.192;2023-06-22T02:44:35;15.23;;;12.10;;
18102;SDS011;9178;51.120;6.192;2023-06-22T02:47:03;14.27;;;11.85;;
18102;SDS011;9178;51.120;6.192;2023-06-22T02:49:30;13.82;;;11.32;;
18102;SDS011;9178;51.120;6.192;2023-06-22T02:52:02;14.90;;;11.70;;
18102;SDS011;9178;51.120;6.192;2023-06-22T02:54:29;14.90;;;12.07;;
18102;SDS011;9178;51.120;6.192;2023-06-22T02:56:56;13.35;;;11.95;;
18102;SDS011;9178;51.120;6.192;2023-06-22T02:59:27;15.00;;;12.20;;
18102;SDS011;9178;51.120;6.192;2023-06-22T03:01:54;15.32;;;12.60;;
18102;SDS011;9178;51.120;6.192;2023-06-22T03:04:21;13.70;;;12.07;;
18102;SDS011;9178;51.120;6.192;2023-06-22T03:06:48;15.23;;;11.63;;
18102;SDS011;9178;51.120;6.192;2023-06-22T03:09:18;14.93;;;12.00;;
18102;SDS011;9178;51.120;6.192;2023-06-22T03:11:45;14.80;;;12.13;;
18102;SDS011;9178;51.120;6.192;2023-06-22T03:14:11;13.02;;;11.48;;
18102;SDS011;9178;51.120;6.192;2023-06-22T03:16:38;12.75;;;11.40;;
18102;SDS011;9178;51.120;6.192;2023-06-22T03:19:06;13.95;;;11.65;;
18102;SDS011;9178;51.120;6.192;2023-06-22T03:21:33;14.10;;;11.38;;
18102;SDS011;9178;51.120;6.192;2023-06-22T03:24:02;13.35;;;11.60;;
18102;SDS011;9178;51.120;6.192;2023-06-22T03:26:32;15.43;;;11.38;;
18102;SDS011;9178;51.120;6.192;2023-06-22T03:29:01;13.35;;;11.75;;
18102;SDS011;9178;51.120;6.192;2023-06-22T03:31:28;13.98;;;11.77;;
18102;SDS011;9178;51.120;6.192;2023-06-22T03:33:55;14.10;;;11.98;;
18102;SDS011;9178;51.120;6.192;2023-06-22T03:36:24;14.18;;;12.63;;
18102;SDS011;9178;51.120;6.192;2023-06-22T03:38:51;13.90;;;12.35;;
18102;SDS011;9178;51.120;6.192;2023-06-22T03:41:18;13.60;;;12.10;;
18102;SDS011;9178;51.120;6.192;2023-06-22T03:43:46;14.48;;;12.60;;
18102;SDS011;9178;51.120;6.192;2023-06-22T03:46:13;14.93;;;12.60;;
18102;SDS011;9178;51.120;6.192;2023-06-22T03:48:40;14.70;;;11.70;;
18102;SDS011;9178;51.120;6.192;2023-06-22T03:51:08;13.50;;;11.80;;
18102;SDS011;9178;51.120;6.192;2023-06-22T03:53:35;13.90;;;12.43;;
18102;SDS011;9178;51.120;6.192;2023-06-22T03:56:02;11.90;;;10.80;;
18102;SDS011;9178;51.120;6.192;2023-06-22T03:58:29;13.52;;;12.23;;
18102;SDS011;9178;51.120;6.192;2023-06-22T04:00:59;13.25;;;11.85;;
18102;SDS011;9178;51.120;6.192;2023-06-22T04:03:26;16.08;;;12.55;;
18102;SDS011;9178;51.120;6.192;2023-06-22T04:05:53;15.32;;;11.88;;
18102;SDS011;9178;51.120;6.192;2023-06-22T04:08:20;14.45;;;12.57;;
18102;SDS011;9178;51.120;6.192;2023-06-22T04:10:47;14.00;;;12.50;;
18102;SDS011;9178;51.120;6.192;2023-06-22T04:13:14;15.48;;;13.90;;
18102;SDS011;9178;51.120;6.192;2023-06-22T04:15:41;16.83;;;13.27;;
18102;SDS011;9178;51.120;6.192;2023-06-22T04:18:10;16.13;;;12.82;;
18102;SDS011;9178;51.120;6.192;2023-06-22T04:20:38;15.45;;;13.75;;
18102;SDS011;9178;51.120;6.192;2023-06-22T04:23:05;14.02;;;12.63;;
18102;SDS011;9178;51.120;6.192;2023-06-22T04:25:33;14.63;;;12.93;;
18102;SDS011;9178;51.120;6.192;2023-06-22T04:28:00;17.70;;;13.23;;
18102;SDS011;9178;51.120;6.192;2023-06-22T04:30:29;15.20;;;13.13;;
18102;SDS011;9178;51.120;6.192;2023-06-22T04:32:58;14.73;;;13.20;;
18102;SDS011;9178;51.120;6.192;2023-06-22T04:35:27;15.20;;;13.07;;
18102;SDS011;9178;51.120;6.192;2023-06-22T04:37:55;15.63;;;14.02;;
18102;SDS011;9178;51.120;6.192;2023-06-22T04:40:24;15.95;;;14.25;;
18102;SDS011;9178;51.120;6.192;2023-06-22T04:42:51;14.68;;;12.73;;
18102;SDS011;9178;51.120;6.192;2023-06-22T04:45:19;15.77;;;14.25;;
18102;SDS011;9178;51.120;6.192;2023-06-22T04:47:46;15.40;;;13.80;;
18102;SDS011;9178;51.120;6.192;2023-06-22T04:50:19;15.75;;;14.13;;
18102;SDS011;9178;51.120;6.192;2023-06-22T04:52:48;15.23;;;13.75;;
18102;SDS011;9178;51.120;6.192;2023-06-22T04:55:15;15.60;;;14.07;;
18102;SDS011;9178;51.120;6.192;2023-06-22T04:57:43;17.45;;;14.27;;
18102;SDS011;9178;51.120;6.192;2023-06-22T05:00:14;16.05;;;14.45;;
18102;SDS011;9178;51.120;6.192;2023-06-22T05:02:42;17.75;;;15.95;;
18102;SDS011;9178;51.120;6.192;2023-06-22T05:05:11;18.23;;;15.20;;
18102;SDS011;9178;51.120;6.192;2023-06-22T05:07:51;16.58;;;14.80;;
18102;SDS011;9178;51.120;6.192;2023-06-22T05:10:20;16.60;;;14.80;;
18102;SDS011;9178;51.120;6.192;2023-06-22T05:12:47;16.92;;;15.00;;
18102;SDS011;9178;51.120;6.192;2023-06-22T05:15:14;16.38;;;14.82;;
18102;SDS011;9178;51.120;6.192;2023-06-22T05:17:41;19.70;;;14.90;;
18102;SDS011;9178;51.120;6.192;2023-06-22T05:20:09;18.23;;;14.93;;
18102;SDS011;9178;51.120;6.192;2023-06-22T05:22:36;20.08;;;15.98;;
18102;SDS011;9178;51.120;6.192;2023-06-22T05:25:07;18.90;;;15.50;;
18102;SDS011;9178;51.120;6.192;2023-06-22T05:27:35;16.48;;;14.75;;
18102;SDS011;9178;51.120;6.192;2023-06-22T05:30:06;16.92;;;15.27;;
18102;SDS011;9178;51.120;6.192;2023-06-22T05:32:34;17.92;;;16.08;;
18102;SDS011;9178;51.120;6.192;2023-06-22T05:35:01;15.90;;;14.38;;
18102;SDS011;9178;51.120;6.192;2023-06-22T05:37:30;18.90;;;14.77;;
18102;SDS011;9178;51.120;6.192;2023-06-22T05:39:57;16.77;;;15.07;;
18102;SDS011;9178;51.120;6.192;2023-06-22T05:42:25;22.35;;;15.40;;
18102;SDS011;9178;51.120;6.192;2023-06-22T05:44:52;16.63;;;15.00;;
18102;SDS011;9178;51.120;6.192;2023-06-22T05:47:20;15.75;;;14.20;;
18102;SDS011;9178;51.120;6.192;2023-06-22T05:49:49;15.75;;;14.15;;
18102;SDS011;9178;51.120;6.192;2023-06-22T05:52:16;16.73;;;14.98;;
18102;SDS011;9178;51.120;6.192;2023-06-22T05:54:43;18.98;;;14.73;;
18102;SDS011;9178;51.120;6.192;2023-06-22T05:57:10;15.93;;;14.18;;
18102;SDS011;9178;51.120;6.192;2023-06-22T05:59:39;17.40;;;14.45;;
18102;SDS011;9178;51.120;6.192;2023-06-22T06:02:06;15.23;;;13.73;;
18102;SDS011;9178;51.120;6.192;2023-06-22T06:04:33;16.35;;;13.82;;
18102;SDS011;9178;51.120;6.192;2023-06-22T06:07:01;15.57;;;13.98;;
18102;SDS011;9178;51.120;6.192;2023-06-22T06:09:28;16.40;;;14.30;;
18102;SDS011;9178;51.120;6.192;2023-06-22T06:11:55;17.52;;;14.27;;
18102;SDS011;9178;51.120;6.192;2023-06-22T06:14:22;16.13;;;14.55;;
18102;SDS011;9178;51.120;6.192;2023-06-22T06:16:51;15.25;;;13.70;;
18102;SDS011;9178;51.120;6.192;2023-06-22T06:19:18;15.07;;;13.55;;
18102;SDS011;9178;51.120;6.192;2023-06-22T06:21:45;16.17;;;14.50;;
18102;SDS011;9178;51.120;6.192;2023-06-22T06:24:12;16.20;;;14.70;;
18102;SDS011;9178;51.120;6.192;2023-06-22T06:26:39;16.23;;;14.50;;
18102;SDS011;9178;51.120;6.192;2023-06-22T06:29:06;17.45;;;14.15;;
18102;SDS011;9178;51.120;6.192;2023-06-22T06:31:33;17.65;;;14.68;;
18102;SDS011;9178;51.120;6.192;2023-06-22T06:34:02;14.75;;;13.25;;
18102;SDS011;9178;51.120;6.192;2023-06-22T06:36:29;15.27;;;13.68;;
18102;SDS011;9178;51.120;6.192;2023-06-22T06:38:56;15.77;;;14.23;;
18102;SDS011;9178;51.120;6.192;2023-06-22T06:41:23;16.73;;;14.48;;
18102;SDS011;9178;51.120;6.192;2023-06-22T06:43:50;18.33;;;15.05;;
18102;SDS011;9178;51.120;6.192;2023-06-22T06:46:17;18.38;;;15.52;;
18102;SDS011;9178;51.120;6.192;2023-06-22T06:48:45;16.70;;;14.52;;
18102;SDS011;9178;51.120;6.192;2023-06-22T06:51:13;16.60;;;14.90;;
18102;SDS011;9178;51.120;6.192;2023-06-22T06:53:40;17.10;;;14.75;;
18102;SDS011;9178;51.120;6.192;2023-06-22T06:56:07;17.27;;;15.48;;
18102;SDS011;9178;51.120;6.192;2023-06-22T06:58:35;17.42;;;15.52;;
18102;SDS011;9178;51.120;6.192;2023-06-22T07:01:03;17.77;;;15.60;;
18102;SDS011;9178;51.120;6.192;2023-06-22T07:03:29;17.52;;;15.75;;
18102;SDS011;9178;51.120;6.192;2023-06-22T07:05:58;16.70;;;15.10;;
18102;SDS011;9178;51.120;6.192;2023-06-22T07:08:27;17.38;;;14.88;;
18102;SDS011;9178;51.120;6.192;2023-06-22T07:10:54;15.93;;;14.27;;
18102;SDS011;9178;51.120;6.192;2023-06-22T07:13:21;15.95;;;14.43;;
18102;SDS011;9178;51.120;6.192;2023-06-22T07:15:49;17.23;;;14.07;;
18102;SDS011;9178;51.120;6.192;2023-06-22T07:18:18;15.02;;;13.35;;
18102;SDS011;9178;51.120;6.192;2023-06-22T07:20:45;15.55;;;13.95;;
18102;SDS011;9178;51.120;6.192;2023-06-22T07:23:12;15.80;;;13.45;;
18102;SDS011;9178;51.120;6.192;2023-06-22T07:25:41;15.57;;;13.98;;
18102;SDS011;9178;51.120;6.192;2023-06-22T07:28:10;16.77;;;15.07;;
18102;SDS011;9178;51.120;6.192;2023-06-22T07:30:37;18.02;;;13.93;;
18102;SDS011;9178;51.120;6.192;2023-06-22T07:33:04;22.52;;;14.55;;
18102;SDS011;9178;51.120;6.192;2023-06-22T07:35:33;16.33;;;13.48;;
18102;SDS011;9178;51.120;6.192;2023-06-22T07:38:00;17.45;;;13.82;;
18102;SDS011;9178;51.120;6.192;2023-06-22T07:40:28;13.98;;;12.63;;
18102;SDS011;9178;51.120;6.192;2023-06-22T07:42:57;16.65;;;13.93;;
18102;SDS011;9178;51.120;6.192;2023-06-22T07:45:23;14.10;;;12.80;;
18102;SDS011;9178;51.120;6.192;2023-06-22T07:47:50;14.55;;;13.15;;
18102;SDS011;9178;51.120;6.192;2023-06-22T07:50:18;17.77;;;12.60;;
18102;SDS011;9178;51.120;6.192;2023-06-22T07:52:46;15.07;;;12.05;;
18102;SDS011;9178;51.120;6.192;2023-06-22T07:55:13;14.02;;;12.57;;
18102;SDS011;9178;51.120;6.192;2023-06-22T07:57:41;15.88;;;12.20;;
18102;SDS011;9178;51.120;6.192;2023-06-22T08:00:11;13.45;;;12.05;;
18102;SDS011;9178;51.120;6.192;2023-06-22T08:02:40;14.00;;;11.48;;
18102;SDS011;9178;51.120;6.192;2023-06-22T08:05:08;12.85;;;11.55;;
18102;SDS011;9178;51.120;6.192;2023-06-22T08:07:36;14.57;;;11.80;;
18102;SDS011;9178;51.120;6.192;2023-06-22T08:10:04;12.82;;;11.25;;
18102;SDS011;9178;51.120;6.192;2023-06-22T08:12:32;13.65;;;12.27;;
18102;SDS011;9178;51.120;6.192;2023-06-22T08:14:59;13.48;;;11.80;;
18102;SDS011;9178;51.120;6.192;2023-06-22T08:17:28;13.55;;;12.15;;
18102;SDS011;9178;51.120;6.192;2023-06-22T08:19:56;12.30;;;10.85;;
18102;SDS011;9178;51.120;6.192;2023-06-22T08:22:23;11.90;;;10.70;;
18102;SDS011;9178;51.120;6.192;2023-06-22T08:24:50;13.43;;;11.18;;
18102;SDS011;9178;51.120;6.192;2023-06-22T08:27:17;13.82;;;11.00;;
18102;SDS011;9178;51.120;6.192;2023-06-22T08:29:46;11.63;;;10.40;;
18102;SDS011;9178;51.120;6.192;2023-06-22T08:32:15;11.13;;;9.85;;
18102;SDS011;9178;51.120;6.192;2023-06-22T08:34:43;11.85;;;10.30;;
18102;SDS011;9178;51.120;6.192;2023-06-22T08:37:10;11.60;;;9.88;;
18102;SDS011;9178;51.120;6.192;2023-06-22T08:39:37;10.95;;;9.23;;
18102;SDS011;9178;51.120;6.192;2023-06-22T08:42:05;10.93;;;9.45;;
18102;SDS011;9178;51.120;6.192;2023-06-22T08:44:33;11.38;;;10.10;;
18102;SDS011;9178;51.120;6.192;2023-06-22T08:47:00;10.77;;;9.32;;
18102;SDS011;9178;51.120;6.192;2023-06-22T08:49:29;9.70;;;8.80;;
18102;SDS011;9178;51.120;6.192;2023-06-22T08:51:57;9.18;;;8.27;;
18102;SDS011;9178;51.120;6.192;2023-06-22T08:54:24;8.98;;;8.18;;
18102;SDS011;9178;51.120;6.192;2023-06-22T08:56:51;9.27;;;8.38;;
18102;SDS011;9178;51.120;6.192;2023-06-22T08:59:18;8.75;;;7.95;;
18102;SDS011;9178;51.120;6.192;2023-06-22T09:01:45;9.13;;;8.20;;
18102;SDS011;9178;51.120;6.192;2023-06-22T09:04:13;9.43;;;8.52;;
18102;SDS011;9178;51.120;6.192;2023-06-22T09:06:42;9.52;;;8.27;;
18102;SDS011;9178;51.120;6.192;2023-06-22T09:09:13;9.00;;;8.20;;
18102;SDS011;9178;51.120;6.192;2023-06-22T09:11:41;8.88;;;8.00;;
18102;SDS011;9178;51.120;6.192;2023-06-22T09:14:09;9.90;;;8.88;;
18102;SDS011;9178;51.120;6.192;2023-06-22T09:16:36;8.32;;;7.53;;
18102;SDS011;9178;51.120;6.192;2023-06-22T09:19:03;12.10;;;8.40;;
18102;SDS011;9178;51.120;6.192;2023-06-22T09:21:32;8.85;;;7.95;;
18102;SDS011;9178;51.120;6.192;2023-06-22T09:24:01;7.53;;;6.82;;
18102;SDS011;9178;51.120;6.192;2023-06-22T09:26:30;7.95;;;7.13;;
18102;SDS011;9178;51.120;6.192;2023-06-22T09:28:57;7.20;;;6.50;;
18102;SDS011;9178;51.120;6.192;2023-06-22T09:31:24;8.45;;;7.68;;
18102;SDS011;9178;51.120;6.192;2023-06-22T09:33:52;8.73;;;7.10;;
18102;SDS011;9178;51.120;6.192;2023-06-22T09:36:19;9.80;;;7.90;;
18102;SDS011;9178;51.120;6.192;2023-06-22T09:38:47;11.77;;;7.55;;
18102;SDS011;9178;51.120;6.192;2023-06-22T09:41:21;8.23;;;7.05;;
18102;SDS011;9178;51.120;6.192;2023-06-22T09:43:49;7.72;;;6.95;;
18102;SDS011;9178;51.120;6.192;2023-06-22T09:46:17;7.28;;;6.68;;
18102;SDS011;9178;51.120;6.192;2023-06-22T09:48:46;7.43;;;6.70;;
18102;SDS011;9178;51.120;6.192;2023-06-22T09:51:14;7.57;;;6.88;;
18102;SDS011;9178;51.120;6.192;2023-06-22T09:53:41;7.88;;;7.13;;
18102;SDS011;9178;51.120;6.192;2023-06-22T09:56:08;7.20;;;6.60;;
18102;SDS011;9178;51.120;6.192;2023-06-22T09:58:39;7.28;;;6.53;;
18102;SDS011;9178;51.120;6.192;2023-06-22T10:01:09;8.00;;;5.55;;
18102;SDS011;9178;51.120;6.192;2023-06-22T10:03:36;7.20;;;5.95;;
18102;SDS011;9178;51.120;6.192;2023-06-22T10:06:03;5.63;;;5.18;;
18102;SDS011;9178;51.120;6.192;2023-06-22T10:08:30;6.40;;;5.82;;
18102;SDS011;9178;51.120;6.192;2023-06-22T10:10:57;10.93;;;5.95;;
18102;SDS011;9178;51.120;6.192;2023-06-22T10:13:24;6.28;;;5.55;;
18102;SDS011;9178;51.120;6.192;2023-06-22T10:15:51;8.00;;;7.20;;
18102;SDS011;9178;51.120;6.192;2023-06-22T10:18:20;8.15;;;7.32;;
18102;SDS011;9178;51.120;6.192;2023-06-22T10:20:47;7.97;;;6.78;;
18102;SDS011;9178;51.120;6.192;2023-06-22T10:23:16;14.43;;;7.57;;
18102;SDS011;9178;51.120;6.192;2023-06-22T10:25:43;12.32;;;8.52;;
18102;SDS011;9178;51.120;6.192;2023-06-22T10:28:10;9.13;;;8.23;;
18102;SDS011;9178;51.120;6.192;2023-06-22T10:30:37;13.27;;;9.00;;
18102;SDS011;9178;51.120;6.192;2023-06-22T10:33:06;11.02;;;8.55;;
18102;SDS011;9178;51.120;6.192;2023-06-22T10:35:39;7.65;;;6.85;;
18102;SDS011;9178;51.120;6.192;2023-06-22T10:38:06;10.45;;;8.10;;
18102;SDS011;9178;51.120;6.192;2023-06-22T10:40:34;8.15;;;7.35;;
18102;SDS011;9178;51.120;6.192;2023-06-22T10:43:00;10.07;;;9.02;;
18102;SDS011;9178;51.120;6.192;2023-06-22T10:45:27;11.77;;;9.25;;
18102;SDS011;9178;51.120;6.192;2023-06-22T10:47:55;11.27;;;10.13;;
18102;SDS011;9178;51.120;6.192;2023-06-22T10:50:22;10.20;;;9.20;;
18102;SDS011;9178;51.120;6.192;2023-06-22T10:52:52;10.70;;;9.70;;
18102;SDS011;9178;51.120;6.192;2023-06-22T10:55:20;11.23;;;10.20;;
18102;SDS011;9178;51.120;6.192;2023-06-22T10:57:47;12.13;;;10.93;;
18102;SDS011;9178;51.120;6.192;2023-06-22T11:00:15;11.68;;;10.57;;
18102;SDS011;9178;51.120;6.192;2023-06-22T11:02:43;12.85;;;11.65;;
18102;SDS011;9178;51.120;6.192;2023-06-22T11:05:11;13.60;;;11.75;;
18102;SDS011;9178;51.120;6.192;2023-06-22T11:07:38;13.98;;;12.65;;
18102;SDS011;9178;51.120;6.192;2023-06-22T11:10:09;14.50;;;13.07;;
18102;SDS011;9178;51.120;6.192;2023-06-22T11:12:36;14.98;;;13.45;;
18102;SDS011;9178;51.120;6.192;2023-06-22T11:15:04;21.70;;;14.80;;
18102;SDS011;9178;51.120;6.192;2023-06-22T11:17:31;15.70;;;14.15;;
18102;SDS011;9178;51.120;6.192;2023-06-22T11:19:58;21.00;;;16.85;;
18102;SDS011;9178;51.120;6.192;2023-06-22T11:22:25;17.73;;;15.88;;
18102;SDS011;9178;51.120;6.192;2023-06-22T11:24:53;18.00;;;16.20;;
18102;SDS011;9178;51.120;6.192;2023-06-22T11:27:21;19.15;;;16.95;;
18102;SDS011;9178;51.120;6.192;2023-06-22T11:29:50;23.85;;;19.35;;
18102;SDS011;9178;51.120;6.192;2023-06-22T11:32:18;19.90;;;18.02;;
18102;SDS011;9178;51.120;6.192;2023-06-22T11:34:45;19.90;;;18.05;;
18102;SDS011;9178;51.120;6.192;2023-06-22T11:37:12;22.23;;;19.77;;
18102;SDS011;9178;51.120;6.192;2023-06-22T11:39:40;20.27;;;18.15;;
18102;SDS011;9178;51.120;6.192;2023-06-22T11:42:07;21.70;;;19.73;;
18102;SDS011;9178;51.120;6.192;2023-06-22T11:44:37;22.30;;;20.15;;
18102;SDS011;9178;51.120;6.192;2023-06-22T11:47:11;20.13;;;17.98;;
18102;SDS011;9178;51.120;6.192;2023-06-22T11:49:38;22.42;;;20.13;;
18102;SDS011;9178;51.120;6.192;2023-06-22T11:52:05;21.73;;;19.52;;
18102;SDS011;9178;51.120;6.192;2023-06-22T11:54:32;22.38;;;19.80;;
18102;SDS011;9178;51.120;6.192;2023-06-22T11:56:59;22.65;;;20.30;;
18102;SDS011;9178;51.120;6.192;2023-06-22T11:59:26;22.80;;;20.42;;
18102;SDS011;9178;51.120;6.192;2023-06-22T12:01:55;22.20;;;19.98;;
18102;SDS011;9178;51.120;6.192;2023-06-22T12:04:23;24.08;;;21.25;;
18102;SDS011;9178;51.120;6.192;2023-06-22T12:06:50;23.05;;;20.65;;
18102;SDS011;9178;51.120;6.192;2023-06-22T12:09:17;22.83;;;20.52;;
18102;SDS011;9178;51.120;6.192;2023-06-22T12:11:44;22.08;;;19.90;;
18102;SDS011;9178;51.120;6.192;2023-06-22T12:14:11;21.35;;;19.17;;
18102;SDS011;9178;51.120;6.192;2023-06-22T12:16:38;22.70;;;20.58;;
18102;SDS011;9178;51.120;6.192;2023-06-22T12:19:07;22.58;;;20.15;;
18102;SDS011;9178;51.120;6.192;2023-06-22T12:21:33;21.88;;;19.70;;
18102;SDS011;9178;51.120;6.192;2023-06-22T12:24:00;21.75;;;19.55;;
18102;SDS011;9178;51.120;6.192;2023-06-22T12:26:27;22.90;;;20.48;;
18102;SDS011;9178;51.120;6.192;2023-06-22T12:28:54;21.02;;;18.60;;
18102;SDS011;9178;51.120;6.192;2023-06-22T12:31:21;22.70;;;19.60;;
18102;SDS011;9178;51.120;6.192;2023-06-22T12:33:48;20.50;;;18.50;;
18102;SDS011;9178;51.120;6.192;2023-06-22T12:36:16;21.38;;;19.17;;
18102;SDS011;9178;51.120;6.192;2023-06-22T12:38:43;22.25;;;20.25;;
18102;SDS011;9178;51.120;6.192;2023-06-22T12:41:10;22.55;;;20.33;;
18102;SDS011;9178;51.120;6.192;2023-06-22T12:43:37;22.67;;;20.55;;
18102;SDS011;9178;51.120;6.192;2023-06-22T12:46:04;22.60;;;20.48;;
18102;SDS011;9178;51.120;6.192;2023-06-22T12:48:31;24.08;;;21.67;;
18102;SDS011;9178;51.120;6.192;2023-06-22T12:50:58;23.50;;;21.33;;
18102;SDS011;9178;51.120;6.192;2023-06-22T12:53:26;23.75;;;21.33;;
18102;SDS011;9178;51.120;6.192;2023-06-22T12:55:53;24.50;;;22.02;;
18102;SDS011;9178;51.120;6.192;2023-06-22T12:58:20;22.27;;;20.05;;
18102;SDS011;9178;51.120;6.192;2023-06-22T13:00:47;23.65;;;21.08;;
18102;SDS011;9178;51.120;6.192;2023-06-22T13:03:14;23.33;;;21.08;;
18102;SDS011;9178;51.120;6.192;2023-06-22T13:05:41;23.17;;;20.45;;
18102;SDS011;9178;51.120;6.192;2023-06-22T13:08:08;24.23;;;21.73;;
18102;SDS011;9178;51.120;6.192;2023-06-22T13:10:37;24.08;;;21.50;;
18102;SDS011;9178;51.120;6.192;2023-06-22T13:13:04;22.92;;;20.55;;
18102;SDS011;9178;51.120;6.192;2023-06-22T13:15:31;25.83;;;23.33;;
18102;SDS011;9178;51.120;6.192;2023-06-22T13:17:58;24.25;;;21.88;;
18102;SDS011;9178;51.120;6.192;2023-06-22T13:20:25;24.77;;;22.38;;
18102;SDS011;9178;51.120;6.192;2023-06-22T13:22:53;25.25;;;23.02;;
18102;SDS011;9178;51.120;6.192;2023-06-22T13:25:21;24.85;;;22.63;;
18102;SDS011;9178;51.120;6.192;2023-06-22T13:27:52;24.40;;;21.92;;
18102;SDS011;9178;51.120;6.192;2023-06-22T13:30:19;26.13;;;23.83;;
18102;SDS011;9178;51.120;6.192;2023-06-22T13:32:47;25.33;;;22.85;;
18102;SDS011;9178;51.120;6.192;2023-06-22T13:35:14;26.08;;;23.48;;
18102;SDS011;9178;51.120;6.192;2023-06-22T13:37:41;24.83;;;22.48;;
18102;SDS011;9178;51.120;6.192;2023-06-22T13:40:08;26.15;;;23.73;;
18102;SDS011;9178;51.120;6.192;2023-06-22T13:42:35;25.52;;;22.88;;
18102;SDS011;9178;51.120;6.192;2023-06-22T13:45:04;25.40;;;22.88;;
18102;SDS011;9178;51.120;6.192;2023-06-22T13:47:32;26.40;;;23.92;;
18102;SDS011;9178;51.120;6.192;2023-06-22T13:49:59;27.60;;;24.92;;
18102;SDS011;9178;51.120;6.192;2023-06-22T13:52:26;25.63;;;23.33;;
18102;SDS011;9178;51.120;6.192;2023-06-22T13:54:53;26.10;;;23.33;;
18102;SDS011;9178;51.120;6.192;2023-06-22T13:57:20;25.67;;;23.48;;
18102;SDS011;9178;51.120;6.192;2023-06-22T13:59:47;26.52;;;24.13;;
18102;SDS011;9178;51.120;6.192;2023-06-22T14:02:15;28.33;;;25.65;;
18102;SDS011;9178;51.120;6.192;2023-06-22T14:04:42;27.13;;;24.63;;
18102;SDS011;9178;51.120;6.192;2023-06-22T14:07:09;27.00;;;24.40;;
18102;SDS011;9178;51.120;6.192;2023-06-22T14:09:36;26.02;;;23.42;;
18102;SDS011;9178;51.120;6.192;2023-06-22T14:12:03;27.33;;;24.73;;
18102;SDS011;9178;51.120;6.192;2023-06-22T14:14:31;26.30;;;23.80;;
18102;SDS011;9178;51.120;6.192;2023-06-22T14:16:58;25.73;;;23.30;;
18102;SDS011;9178;51.120;6.192;2023-06-22T14:19:26;26.60;;;23.95;;
18102;SDS011;9178;51.120;6.192;2023-06-22T14:21:53;26.83;;;24.13;;
18102;SDS011;9178;51.120;6.192;2023-06-22T14:24:21;27.38;;;24.65;;
18102;SDS011;9178;51.120;6.192;2023-06-22T14:26:48;26.30;;;23.73;;
18102;SDS011;9178;51.120;6.192;2023-06-22T14:29:15;25.75;;;23.27;;
18102;SDS011;9178;51.120;6.192;2023-06-22T14:31:44;26.25;;;23.52;;
18102;SDS011;9178;51.120;6.192;2023-06-22T14:34:12;25.85;;;23.45;;
18102;SDS011;9178;51.120;6.192;2023-06-22T14:36:40;26.10;;;23.60;;
18102;SDS011;9178;51.120;6.192;2023-06-22T14:39:08;25.90;;;23.50;;
18102;SDS011;9178;51.120;6.192;2023-06-22T14:41:35;26.77;;;24.13;;
18102;SDS011;9178;51.120;6.192;2023-06-22T14:44:02;26.50;;;24.00;;
18102;SDS011;9178;51.120;6.192;2023-06-22T14:46:29;25.83;;;23.20;;